createdAt,value
2018-02-09T00:02:04.264Z,44.20
2018-02-09T00:04:32.439Z,40.77
2018-02-09T00:07:00.615Z,52.33
2018-02-09T00:09:28.790Z,45.13
2018-02-09T00:11:56.956Z,49.70
2018-02-09T00:14:25.137Z,47.53
2018-02-09T00:16:53.325Z,49.27
2018-02-09T00:19:21.502Z,46.37
2018-02-09T00:21:49.686Z,48.43
2018-02-09T00:24:17.857Z,50.30
2018-02-09T00:26:46.017Z,48.30
2018-02-09T00:29:14.193Z,47.90
2018-02-09T00:31:42.359Z,52.33
2018-02-09T00:34:10.546Z,48.97
2018-02-09T00:36:38.726Z,50.27
2018-02-09T00:39:06.894Z,51.60
2018-02-09T00:41:35.061Z,46.27
2018-02-09T00:44:03.241Z,48.57
2018-02-09T00:46:31.406Z,54.63
2018-02-09T00:48:59.561Z,45.87
2018-02-09T00:51:27.734Z,44.87
2018-02-09T00:53:55.929Z,47.00
2018-02-09T00:56:24.107Z,48.17
2018-02-09T00:58:52.279Z,44.10
2018-02-09T01:01:20.451Z,35.70
2018-02-09T01:03:48.649Z,35.93
2018-02-09T01:06:16.812Z,37.33
2018-02-09T01:08:44.996Z,42.17
2018-02-09T01:11:13.166Z,43.43
2018-02-09T01:13:41.338Z,42.57
2018-02-09T01:16:09.507Z,39.97
2018-02-09T01:18:37.676Z,38.33
2018-02-09T01:21:05.851Z,39.30
2018-02-09T01:23:34.025Z,41.10
2018-02-09T01:26:02.199Z,43.67
2018-02-09T01:28:30.393Z,40.03
2018-02-09T01:30:58.559Z,38.33
2018-02-09T01:33:26.757Z,39.90
2018-02-09T01:35:54.919Z,39.30
2018-02-09T01:38:23.137Z,38.17
2018-02-09T01:40:51.277Z,43.20
2018-02-09T01:43:19.445Z,33.63
2018-02-09T01:45:47.605Z,32.70
2018-02-09T01:48:15.787Z,37.30
2018-02-09T01:50:43.952Z,37.73
2018-02-09T01:53:12.145Z,34.37
2018-02-09T01:55:40.308Z,33.93
2018-02-09T01:58:08.473Z,36.20
2018-02-09T02:00:36.651Z,34.43
2018-02-09T02:03:04.834Z,42.23
2018-02-09T02:05:33.008Z,37.13
2018-02-09T02:08:01.179Z,41.53
2018-02-09T02:10:29.354Z,44.60
2018-02-09T02:12:57.527Z,41.57
2018-02-09T02:15:25.722Z,45.37
2018-02-09T02:17:53.888Z,47.43
2018-02-09T02:20:22.049Z,41.40
2018-02-09T02:22:50.233Z,42.73
2018-02-09T02:25:18.416Z,47.57
2018-02-09T02:27:46.609Z,43.30
2018-02-09T02:30:14.769Z,47.27
2018-02-09T02:32:42.934Z,47.73
2018-02-09T02:35:11.126Z,46.10
2018-02-09T02:37:40.078Z,45.07
2018-02-09T02:40:08.254Z,44.43
2018-02-09T02:42:36.443Z,43.20
2018-02-09T02:45:04.605Z,49.63
2018-02-09T02:47:32.762Z,52.27
2018-02-09T02:50:00.947Z,48.90
2018-02-09T02:52:29.115Z,47.27
2018-02-09T02:54:57.302Z,43.23
2018-02-09T02:57:25.488Z,41.37
2018-02-09T02:59:53.671Z,47.10
2018-02-09T03:02:21.866Z,41.60
2018-02-09T03:04:50.046Z,49.13
2018-02-09T03:07:18.220Z,44.60
2018-02-09T03:09:46.401Z,40.53
2018-02-09T03:12:15.346Z,46.70
2018-02-09T03:14:43.533Z,59.13
2018-02-09T03:17:11.710Z,45.00
2018-02-09T03:19:39.881Z,50.47
2018-02-09T03:22:08.045Z,44.77
2018-02-09T03:24:36.223Z,47.70
2018-02-09T03:27:04.388Z,48.40
2018-02-09T03:29:32.554Z,40.87
2018-02-09T03:32:00.746Z,43.67
2018-02-09T03:34:28.933Z,43.97
2018-02-09T03:36:57.093Z,49.07
2018-02-09T03:39:25.265Z,45.40
2018-02-09T03:41:53.443Z,45.00
2018-02-09T03:44:21.610Z,45.30
2018-02-09T03:46:49.784Z,48.00
2018-02-09T03:49:17.941Z,44.97
2018-02-09T03:51:46.113Z,47.37
2018-02-09T03:54:14.283Z,43.93
2018-02-09T03:56:42.474Z,44.90
2018-02-09T03:59:10.699Z,45.73
2018-02-09T04:01:38.890Z,46.30
2018-02-09T04:04:07.850Z,52.33
2018-02-09T04:06:36.028Z,57.47
2018-02-09T04:09:04.257Z,45.43
2018-02-09T04:11:32.435Z,57.50
2018-02-09T04:14:00.601Z,59.10
2018-02-09T04:16:28.765Z,54.40
2018-02-09T04:18:57.737Z,54.77
2018-02-09T04:21:25.940Z,59.10
2018-02-09T04:23:54.105Z,50.90
2018-02-09T04:26:23.048Z,48.20
2018-02-09T04:28:51.207Z,51.57
2018-02-09T04:31:19.388Z,53.90
2018-02-09T04:33:47.567Z,58.77
2018-02-09T04:36:15.741Z,53.03
2018-02-09T04:38:43.935Z,54.07
2018-02-09T04:41:12.129Z,64.97
2018-02-09T04:43:40.305Z,56.03
2018-02-09T04:46:09.262Z,51.83
2018-02-09T04:48:37.443Z,52.07
2018-02-09T04:51:05.646Z,59.10
2018-02-09T04:53:33.825Z,47.03
2018-02-09T04:56:02.785Z,58.20
2018-02-09T04:58:30.954Z,55.37
2018-02-09T05:00:59.891Z,60.53
2018-02-09T05:03:28.834Z,63.30
2018-02-09T05:05:57.018Z,57.37
2018-02-09T05:08:25.209Z,57.90
2018-02-09T05:10:53.419Z,54.27
2018-02-09T05:13:22.363Z,67.23
2018-02-09T05:15:50.534Z,60.93
2018-02-09T05:18:18.739Z,60.77
2018-02-09T05:20:46.906Z,53.07
2018-02-09T05:23:15.082Z,56.67
2018-02-09T05:25:43.264Z,56.27
2018-02-09T05:28:11.468Z,56.80
2018-02-09T05:30:39.665Z,52.90
2018-02-09T05:33:07.898Z,55.70
2018-02-09T05:35:36.849Z,52.57
2018-02-09T05:38:05.037Z,57.03
2018-02-09T05:40:33.216Z,57.00
2018-02-09T05:43:01.412Z,57.37
2018-02-09T05:45:30.365Z,58.57
2018-02-09T05:47:58.533Z,59.67
2018-02-09T05:50:26.710Z,56.93
2018-02-09T05:52:54.878Z,54.20
2018-02-09T05:55:23.047Z,55.23
2018-02-09T05:57:51.246Z,52.10
2018-02-09T06:00:19.421Z,56.00
2018-02-09T06:02:47.615Z,57.80
2018-02-09T06:05:15.804Z,56.90
2018-02-09T06:07:44.782Z,64.67
2018-02-09T06:10:13.005Z,54.33
2018-02-09T06:12:41.187Z,67.60
2018-02-09T06:15:09.460Z,56.90
2018-02-09T06:17:37.701Z,61.50
2018-02-09T06:20:06.662Z,62.07
2018-02-09T06:22:34.825Z,56.13
2018-02-09T06:25:03.071Z,66.77
2018-02-09T06:27:31.309Z,61.47
2018-02-09T06:29:59.556Z,69.27
2018-02-09T06:32:27.838Z,65.37
2018-02-09T06:34:56.066Z,57.73
2018-02-09T06:37:24.369Z,68.90
2018-02-09T06:39:52.547Z,67.70
2018-02-09T06:42:20.776Z,62.53
2018-02-09T06:44:49.759Z,62.93
2018-02-09T06:47:18.045Z,62.90
2018-02-09T06:49:47.025Z,63.27
2018-02-09T06:52:15.257Z,69.00
2018-02-09T06:54:43.452Z,75.17
2018-02-09T06:57:12.418Z,94.23
2018-02-09T06:59:40.624Z,100.57
2018-02-09T07:02:08.822Z,89.57
2018-02-09T07:04:37.024Z,115.63
2018-02-09T07:07:11.262Z,110.77
2018-02-09T07:09:39.522Z,111.53
2018-02-09T07:12:07.811Z,120.50
2018-02-09T07:14:36.079Z,120.20
2018-02-09T07:17:04.313Z,112.40
2018-02-09T07:19:32.567Z,124.67
2018-02-09T07:22:00.760Z,134.37
2018-02-09T07:24:28.967Z,134.60
2018-02-09T07:26:57.902Z,131.87
2018-02-09T07:29:26.079Z,146.50
2018-02-09T07:31:54.263Z,110.73
2018-02-09T07:34:22.440Z,105.57
2018-02-09T07:36:50.630Z,117.67
2018-02-09T07:39:18.810Z,130.67
2018-02-09T07:41:47.049Z,125.30
2018-02-09T07:44:15.348Z,142.53
2018-02-09T07:46:43.533Z,157.80
2018-02-09T07:49:11.729Z,152.20
2018-02-09T07:51:40.727Z,138.07
2018-02-09T07:54:09.702Z,133.63
2018-02-09T07:56:37.897Z,139.87
2018-02-09T07:59:06.897Z,159.23
2018-02-09T09:23:33.605Z,128.50
2018-02-09T09:26:01.808Z,122.63
2018-02-09T09:28:29.993Z,123.23
2018-02-09T09:30:58.188Z,126.50
2018-02-09T09:33:26.380Z,124.33
2018-02-09T09:35:54.631Z,106.50
2018-02-09T09:38:22.786Z,180.53
2018-02-09T09:40:50.967Z,123.77
2018-02-09T09:43:19.178Z,105.20
2018-02-09T09:45:47.386Z,99.17
2018-02-09T09:48:15.567Z,116.90
2018-02-09T09:50:43.781Z,96.80
2018-02-09T09:53:12.034Z,105.97
2018-02-09T09:55:40.251Z,99.37
2018-02-09T09:58:08.439Z,89.57
2018-02-09T10:00:37.397Z,111.47
2018-02-09T10:03:05.594Z,98.87
2018-02-09T10:05:33.792Z,100.53
2018-02-09T10:08:02.741Z,100.23
2018-02-09T10:10:30.929Z,112.53
2018-02-09T10:12:59.133Z,101.97
2018-02-09T10:15:28.102Z,107.73
2018-02-09T10:17:56.339Z,112.90
2018-02-09T10:20:24.514Z,97.60
2018-02-09T10:22:52.750Z,97.40
2018-02-09T10:25:21.710Z,103.93
2018-02-09T10:27:49.899Z,86.33
2018-02-09T11:46:15.743Z,92.30
2018-02-09T11:48:43.930Z,100.63
2018-02-09T11:51:12.959Z,104.07
2018-02-09T11:53:41.270Z,110.43
2018-02-09T11:56:09.449Z,93.20
2018-02-09T11:58:37.681Z,100.90
2018-02-09T12:01:05.900Z,94.00
2018-02-09T12:03:34.173Z,110.87
2018-02-09T12:06:02.379Z,122.13
2018-02-09T12:08:30.637Z,116.63
2018-02-09T12:11:02.834Z,103.73
2018-02-09T12:13:31.828Z,101.17
2018-02-09T12:16:00.810Z,104.13
2018-02-09T12:18:33.629Z,95.90
2018-02-09T12:21:02.098Z,90.00
2018-02-09T12:23:30.286Z,106.07
2018-02-09T12:25:59.093Z,105.87
2018-02-09T12:28:28.636Z,93.93
2018-02-09T12:31:00.964Z,95.37
2018-02-09T12:33:29.175Z,101.17
2018-02-09T12:35:57.472Z,95.80
2018-02-09T12:38:31.650Z,98.53
2018-02-09T12:40:59.843Z,94.30
2018-02-09T12:43:28.003Z,99.27
2018-02-09T12:45:56.185Z,103.50
2018-02-09T12:48:24.341Z,86.97
2018-02-09T12:50:52.512Z,108.47
2018-02-09T12:53:20.724Z,107.90
2018-02-09T12:55:48.893Z,105.40
2018-02-09T12:58:17.125Z,97.67
2018-02-09T13:00:45.302Z,89.23
2018-02-09T13:03:13.488Z,91.43
2018-02-09T13:05:41.698Z,96.90
2018-02-09T13:08:09.919Z,106.63
2018-02-09T13:10:38.125Z,103.00
2018-02-09T13:13:08.250Z,104.10
2018-02-09T13:15:36.433Z,117.83
2018-02-09T13:18:04.644Z,105.97
2018-02-09T13:20:33.599Z,109.63
2018-02-09T13:23:19.819Z,128.93
2018-02-09T13:25:47.993Z,126.07
2018-02-09T13:28:34.903Z,109.00
2018-02-09T13:31:03.099Z,118.93
2018-02-09T13:33:32.088Z,135.67
2018-02-09T13:36:01.032Z,125.43
2018-02-09T13:38:29.242Z,136.00
2018-02-09T13:40:57.476Z,114.10
2018-02-09T13:43:25.661Z,122.60
2018-02-09T13:45:53.883Z,111.10
2018-02-09T14:32:04.722Z,129.07
2018-02-09T14:34:33.848Z,129.57
2018-02-09T14:37:02.818Z,131.07
2018-02-09T14:39:31.069Z,123.70
2018-02-09T14:41:59.289Z,125.30
2018-02-09T14:44:28.241Z,115.70
2018-02-09T14:46:56.438Z,125.57
2018-02-09T14:49:24.633Z,128.83
2018-02-09T14:51:53.582Z,105.03
2018-02-09T14:54:21.777Z,115.83
2018-02-09T14:56:49.973Z,120.90
2018-02-09T14:59:18.942Z,107.73
2018-02-09T15:01:47.118Z,112.67
2018-02-09T15:04:15.342Z,104.23
2018-02-09T15:06:43.534Z,115.93
2018-02-09T15:09:11.719Z,111.90
2018-02-09T15:11:39.914Z,104.00
2018-02-09T15:14:08.091Z,98.37
2018-02-09T15:16:37.780Z,113.27
2018-02-09T15:19:05.961Z,109.67
2018-02-09T15:21:34.951Z,109.20
2018-02-09T15:24:03.134Z,102.90
2018-02-09T15:26:31.398Z,108.10
2018-02-09T15:28:59.599Z,101.00
2018-02-09T15:31:27.789Z,105.00
2018-02-09T15:33:55.987Z,116.30
2018-02-09T15:36:24.202Z,112.27
2018-02-09T15:38:52.377Z,129.80
2018-02-09T15:41:21.157Z,125.97
2018-02-09T15:43:49.339Z,119.47
2018-02-09T15:46:18.334Z,123.13
2018-02-09T15:48:46.514Z,148.40
2018-02-09T15:51:14.694Z,132.80
2018-02-09T15:53:42.881Z,123.07
2018-02-09T15:56:11.106Z,133.47
2018-02-09T15:58:39.302Z,132.57
2018-02-09T16:01:07.498Z,142.70
2018-02-09T16:03:35.693Z,144.60
2018-02-09T16:06:03.958Z,151.47
2018-02-09T16:08:32.149Z,146.63
2018-02-09T16:11:01.114Z,156.50
2018-02-09T16:13:29.290Z,155.47
2018-02-09T16:15:58.231Z,163.30
2018-02-09T16:18:26.429Z,161.00
2018-02-09T16:20:54.625Z,154.93
2018-02-09T16:23:22.829Z,156.57
2018-02-09T16:25:51.020Z,148.50
2018-02-09T16:28:20.057Z,156.27
2018-02-09T16:30:48.301Z,155.53
2018-02-09T16:33:16.528Z,146.57
2018-02-09T16:35:44.725Z,154.57
2018-02-09T16:38:12.911Z,152.93
2018-02-09T16:40:41.890Z,163.77
2018-02-09T16:43:10.082Z,164.67
2018-02-09T16:45:39.029Z,152.93
2018-02-09T16:48:07.223Z,152.13
2018-02-09T16:50:35.418Z,176.73
2018-02-09T16:53:04.367Z,164.63
2018-02-09T16:55:32.538Z,157.40
2018-02-09T16:58:00.739Z,165.60
2018-02-09T17:00:28.922Z,144.47
2018-02-09T17:02:57.162Z,149.17
2018-02-09T17:05:25.360Z,144.40
2018-02-09T17:07:53.554Z,133.77
2018-02-09T17:10:21.731Z,147.60
2018-02-09T17:12:50.698Z,163.90
2018-02-09T17:15:18.950Z,142.03
2018-02-09T17:17:47.119Z,142.20
2018-02-09T17:20:15.307Z,143.23
2018-02-09T17:22:43.513Z,143.17
2018-02-09T17:25:11.693Z,143.57
2018-02-09T17:27:39.897Z,147.17
2018-02-09T17:30:08.086Z,151.23
2018-02-09T17:32:36.257Z,144.70
2018-02-09T17:35:04.434Z,142.03
2018-02-09T17:37:32.719Z,145.70
2018-02-09T17:40:01.673Z,152.37
2018-02-09T17:42:30.660Z,118.20
2018-02-09T19:06:56.597Z,145.03
2018-02-09T19:09:24.807Z,146.77
2018-02-09T19:11:53.015Z,142.17
2018-02-09T19:14:22.021Z,154.37
2018-02-09T19:16:50.266Z,157.70
2018-02-09T19:19:18.457Z,142.17
2018-02-09T19:21:47.435Z,144.97
2018-02-09T19:24:15.636Z,139.67
2018-02-09T19:26:43.820Z,135.20
2018-02-09T19:29:12.015Z,141.13
2018-02-09T19:31:40.197Z,146.37
2018-02-09T19:34:08.382Z,143.17
2018-02-09T19:36:36.574Z,132.80
2018-02-09T19:39:04.815Z,140.83
2018-02-09T19:41:33.057Z,148.67
2018-02-09T19:44:02.052Z,127.43
2018-02-09T19:46:31.050Z,121.53
2018-02-09T19:48:59.998Z,137.33
2018-02-09T19:51:28.209Z,139.90
2018-02-09T19:53:57.178Z,145.87
2018-02-09T19:56:25.403Z,163.90
2018-02-09T19:58:54.369Z,158.40
2018-02-09T20:01:23.407Z,161.70
2018-02-09T20:03:51.601Z,177.90
2018-02-09T20:06:19.808Z,150.27
2018-02-09T20:08:48.775Z,141.10
2018-02-09T20:11:17.065Z,130.87
2018-02-09T20:13:45.260Z,152.57
2018-02-09T20:16:14.220Z,149.83
2018-02-09T20:18:42.420Z,162.63
2018-02-09T20:21:11.395Z,192.60
2018-02-09T20:23:39.597Z,188.70
2018-02-09T20:26:08.543Z,168.07
2018-02-09T20:28:36.748Z,172.03
2018-02-09T20:31:04.959Z,172.33
2018-02-09T20:33:33.170Z,187.13
2018-02-09T20:36:01.352Z,189.40
2018-02-09T20:38:29.556Z,191.80
2018-02-09T20:40:58.555Z,185.13
2018-02-09T20:43:27.525Z,188.73
2018-02-09T20:45:55.831Z,188.27
2018-02-09T20:48:24.822Z,186.90
2018-02-09T20:50:53.871Z,185.10
2018-02-09T20:53:22.083Z,187.70
2018-02-09T20:55:50.269Z,176.43
2018-02-09T20:58:19.240Z,189.53
2018-02-09T21:00:47.440Z,178.83
2018-02-09T21:03:16.395Z,183.57
2018-02-09T21:05:44.597Z,181.20
2018-02-09T21:08:13.568Z,179.47
2018-02-09T21:10:41.759Z,171.57
2018-02-09T21:13:09.954Z,181.60
2018-02-09T21:15:38.946Z,183.47
2018-02-09T21:18:07.918Z,192.87
2018-02-09T21:20:36.155Z,179.67
2018-02-09T21:23:04.372Z,153.20
2018-02-09T21:25:32.565Z,185.90
2018-02-09T21:28:01.544Z,168.97
2018-02-09T21:30:30.514Z,165.20
2018-02-09T21:32:58.728Z,158.80
2018-02-09T21:35:27.698Z,180.53
2018-02-09T21:37:55.900Z,162.40
2018-02-09T21:40:24.105Z,173.27
2018-02-09T21:42:52.342Z,176.90
2018-02-09T21:45:21.359Z,158.90
2018-02-09T21:47:49.603Z,162.33
2018-02-09T21:50:18.584Z,170.53
2018-02-09T21:52:46.793Z,208.00
2018-02-09T21:55:14.993Z,171.47
2018-02-09T21:57:43.176Z,216.97
2018-02-09T22:00:11.408Z,193.43
2018-02-09T22:02:40.363Z,171.27
2018-02-09T22:05:08.548Z,174.50
2018-02-09T22:07:36.748Z,199.03
2018-02-09T22:10:05.696Z,194.07
2018-02-09T22:12:33.920Z,164.63
2018-02-09T22:15:02.893Z,193.00
2018-02-09T22:17:31.068Z,165.70
2018-02-09T22:19:59.313Z,190.57
2018-02-09T22:22:27.519Z,195.93
2018-02-09T22:24:55.698Z,167.53
2018-02-09T22:27:23.899Z,178.97
2018-02-09T22:29:52.082Z,216.10
2018-02-09T22:32:20.283Z,225.20
2018-02-09T22:34:49.250Z,204.97
2018-02-09T22:37:17.486Z,192.63
2018-02-09T22:39:45.696Z,208.27
2018-02-09T22:42:13.874Z,221.63
2018-02-09T22:44:42.086Z,190.37
2018-02-09T22:47:10.284Z,191.73
2018-02-09T22:49:38.502Z,204.20
2018-02-09T22:52:06.690Z,197.50
2018-02-09T22:54:34.936Z,180.90
2018-02-09T22:57:03.104Z,178.00
2018-02-09T22:59:32.177Z,193.23
2018-02-09T23:02:00.363Z,195.07
2018-02-09T23:04:29.324Z,211.33
2018-02-09T23:06:57.574Z,187.37
2018-02-09T23:09:25.721Z,197.83
2018-02-09T23:11:54.751Z,211.30
2018-02-09T23:14:22.948Z,243.97
2018-02-09T23:16:51.150Z,237.40
2018-02-09T23:19:19.345Z,244.47
2018-02-09T23:21:48.311Z,260.80
2018-02-09T23:24:16.524Z,253.57
2018-02-09T23:26:44.721Z,214.37
2018-02-09T23:29:12.998Z,234.83
2018-02-09T23:31:41.173Z,258.03
2018-02-09T23:34:09.370Z,233.33
2018-02-09T23:36:37.578Z,222.53
2018-02-09T23:39:06.557Z,241.53
2018-02-09T23:41:34.755Z,255.17
2018-02-09T23:44:03.705Z,246.37
2018-02-09T23:46:31.927Z,243.73
2018-02-09T23:49:00.874Z,246.60
2018-02-09T23:51:29.046Z,234.90
2018-02-09T23:53:57.246Z,241.30
2018-02-09T23:56:25.425Z,268.23
2018-02-09T23:58:54.402Z,255.70
